KPTS/PTS METAR and TAF weather

Enter ICAO airport designator
Station Type Date Time Source
KPTS METAR 2021/09/16 10:15 UTC NOAA

KPTS 161015Z AUTO 13005KT 10SM CLR 20/19 A2996 RMK AO2 T01960186


Station Type Date Time Source
KPTS Decoded METAR 2021/09/16 10:15 UTC NOAA

Station name not available
Sep 16, 2021 - 06:15 AM EDT / 2021.09.16 1015 UTC
Wind: from the SE (130 degrees) at 6 MPH (5 KT):0
Visibility: 10 mile(s):0
Sky conditions: clear
Temperature: 67.3 F (19.6 C)
Dew Point: 65.5 F (18.6 C)
Relative Humidity: 93%
Pressure (altimeter): 29.96 in. Hg (1014 hPa)
ob: KPTS 161015Z AUTO 13005KT 10SM CLR 20/19 A2996 RMK AO2 T01960186
cycle: 10

Station Type Date Time Source
KPTS TAF UTC NOAA

Error!

Example: see airport list